sensor_id;sensor_type;location;lat;lon;timestamp;P1;durP1;ratioP1;P2;durP2;ratioP2
3781;SDS011;6881;49.962;7.718;2022-08-19T00:01:31;25.73;;;23.10;;
3781;SDS011;6881;49.962;7.718;2022-08-19T00:04:00;24.00;;;21.50;;
3781;SDS011;6881;49.962;7.718;2022-08-19T00:06:28;26.33;;;23.73;;
3781;SDS011;6881;49.962;7.718;2022-08-19T00:08:54;24.17;;;21.60;;
3781;SDS011;6881;49.962;7.718;2022-08-19T00:11:20;26.60;;;23.93;;
3781;SDS011;6881;49.962;7.718;2022-08-19T00:13:46;24.50;;;22.10;;
3781;SDS011;6881;49.962;7.718;2022-08-19T00:16:13;24.00;;;21.57;;
3781;SDS011;6881;49.962;7.718;2022-08-19T00:18:39;25.17;;;22.77;;
3781;SDS011;6881;49.962;7.718;2022-08-19T00:21:05;25.00;;;22.60;;
3781;SDS011;6881;49.962;7.718;2022-08-19T00:23:32;24.93;;;22.43;;
3781;SDS011;6881;49.962;7.718;2022-08-19T00:25:59;25.37;;;22.87;;
3781;SDS011;6881;49.962;7.718;2022-08-19T00:28:25;24.03;;;21.73;;
3781;SDS011;6881;49.962;7.718;2022-08-19T00:30:50;24.67;;;22.17;;
3781;SDS011;6881;49.962;7.718;2022-08-19T00:33:18;23.30;;;21.10;;
3781;SDS011;6881;49.962;7.718;2022-08-19T00:35:43;24.37;;;22.07;;
3781;SDS011;6881;49.962;7.718;2022-08-19T00:38:09;25.90;;;20.90;;
3781;SDS011;6881;49.962;7.718;2022-08-19T00:40:34;24.50;;;21.97;;
3781;SDS011;6881;49.962;7.718;2022-08-19T00:43:00;25.47;;;22.50;;
3781;SDS011;6881;49.962;7.718;2022-08-19T00:45:26;26.43;;;22.73;;
3781;SDS011;6881;49.962;7.718;2022-08-19T00:47:57;26.93;;;24.03;;
3781;SDS011;6881;49.962;7.718;2022-08-19T00:50:22;23.90;;;21.50;;
3781;SDS011;6881;49.962;7.718;2022-08-19T00:52:48;26.30;;;22.60;;
3781;SDS011;6881;49.962;7.718;2022-08-19T00:55:24;24.60;;;22.20;;
3781;SDS011;6881;49.962;7.718;2022-08-19T00:57:54;24.40;;;22.00;;
3781;SDS011;6881;49.962;7.718;2022-08-19T01:00:22;23.53;;;21.20;;
3781;SDS011;6881;49.962;7.718;2022-08-19T01:02:48;23.30;;;20.90;;
3781;SDS011;6881;49.962;7.718;2022-08-19T01:05:16;22.47;;;20.30;;
3781;SDS011;6881;49.962;7.718;2022-08-19T01:07:45;23.40;;;21.00;;
3781;SDS011;6881;49.962;7.718;2022-08-19T01:10:13;23.47;;;21.17;;
3781;SDS011;6881;49.962;7.718;2022-08-19T01:12:41;26.13;;;22.63;;
3781;SDS011;6881;49.962;7.718;2022-08-19T01:15:08;22.80;;;19.67;;
3781;SDS011;6881;49.962;7.718;2022-08-19T01:17:36;21.77;;;19.47;;
3781;SDS011;6881;49.962;7.718;2022-08-19T01:20:04;21.30;;;19.20;;
3781;SDS011;6881;49.962;7.718;2022-08-19T01:23:13;22.90;;;20.70;;
3781;SDS011;6881;49.962;7.718;2022-08-19T01:25:31;22.70;;;20.50;;
3781;SDS011;6881;49.962;7.718;2022-08-19T01:27:58;21.67;;;19.57;;
3781;SDS011;6881;49.962;7.718;2022-08-19T01:30:25;22.30;;;20.00;;
3781;SDS011;6881;49.962;7.718;2022-08-19T01:32:55;22.07;;;19.77;;
3781;SDS011;6881;49.962;7.718;2022-08-19T01:35:21;19.57;;;17.67;;
3781;SDS011;6881;49.962;7.718;2022-08-19T01:37:52;19.83;;;18.03;;
3781;SDS011;6881;49.962;7.718;2022-08-19T01:40:20;19.90;;;17.80;;
3781;SDS011;6881;49.962;7.718;2022-08-19T01:42:47;19.27;;;17.27;;
3781;SDS011;6881;49.962;7.718;2022-08-19T01:45:14;19.13;;;17.33;;
3781;SDS011;6881;49.962;7.718;2022-08-19T01:47:39;19.13;;;17.27;;
3781;SDS011;6881;49.962;7.718;2022-08-19T01:50:06;18.17;;;16.57;;
3781;SDS011;6881;49.962;7.718;2022-08-19T01:52:34;17.53;;;15.83;;
3781;SDS011;6881;49.962;7.718;2022-08-19T01:55:01;17.33;;;15.60;;
3781;SDS011;6881;49.962;7.718;2022-08-19T01:57:26;16.90;;;15.40;;
3781;SDS011;6881;49.962;7.718;2022-08-19T01:59:52;17.17;;;15.40;;
3781;SDS011;6881;49.962;7.718;2022-08-19T02:02:17;16.53;;;15.03;;
3781;SDS011;6881;49.962;7.718;2022-08-19T02:04:43;18.80;;;15.77;;
3781;SDS011;6881;49.962;7.718;2022-08-19T02:07:08;16.10;;;14.33;;
3781;SDS011;6881;49.962;7.718;2022-08-19T02:09:34;16.80;;;15.10;;
3781;SDS011;6881;49.962;7.718;2022-08-19T02:12:00;17.20;;;15.43;;
3781;SDS011;6881;49.962;7.718;2022-08-19T02:14:25;16.10;;;14.53;;
3781;SDS011;6881;49.962;7.718;2022-08-19T02:16:51;15.77;;;14.23;;
3781;SDS011;6881;49.962;7.718;2022-08-19T02:19:16;17.00;;;14.33;;
3781;SDS011;6881;49.962;7.718;2022-08-19T02:21:42;15.90;;;14.30;;
3781;SDS011;6881;49.962;7.718;2022-08-19T02:24:08;16.37;;;14.70;;
3781;SDS011;6881;49.962;7.718;2022-08-19T02:26:34;15.67;;;14.20;;
3781;SDS011;6881;49.962;7.718;2022-08-19T02:28:59;16.30;;;14.50;;
3781;SDS011;6881;49.962;7.718;2022-08-19T02:31:25;15.27;;;13.87;;
3781;SDS011;6881;49.962;7.718;2022-08-19T02:33:52;15.13;;;13.53;;
3781;SDS011;6881;49.962;7.718;2022-08-19T02:36:18;16.63;;;14.80;;
3781;SDS011;6881;49.962;7.718;2022-08-19T02:38:44;14.47;;;13.07;;
3781;SDS011;6881;49.962;7.718;2022-08-19T02:44:02;15.77;;;14.07;;
3781;SDS011;6881;49.962;7.718;2022-08-19T02:46:30;17.30;;;15.63;;
3781;SDS011;6881;49.962;7.718;2022-08-19T02:48:57;17.70;;;15.80;;
3781;SDS011;6881;49.962;7.718;2022-08-19T02:51:26;18.07;;;16.17;;
3781;SDS011;6881;49.962;7.718;2022-08-19T02:53:53;17.63;;;15.93;;
3781;SDS011;6881;49.962;7.718;2022-08-19T02:56:20;19.70;;;16.67;;
3781;SDS011;6881;49.962;7.718;2022-08-19T02:58:45;19.20;;;16.10;;
3781;SDS011;6881;49.962;7.718;2022-08-19T03:01:18;18.97;;;17.20;;
3781;SDS011;6881;49.962;7.718;2022-08-19T03:03:45;19.60;;;17.40;;
3781;SDS011;6881;49.962;7.718;2022-08-19T03:06:12;20.83;;;18.63;;
3781;SDS011;6881;49.962;7.718;2022-08-19T03:08:40;19.43;;;17.43;;
3781;SDS011;6881;49.962;7.718;2022-08-19T03:11:06;20.80;;;18.77;;
3781;SDS011;6881;49.962;7.718;2022-08-19T03:13:39;21.97;;;19.00;;
3781;SDS011;6881;49.962;7.718;2022-08-19T03:16:05;23.43;;;18.47;;
3781;SDS011;6881;49.962;7.718;2022-08-19T03:18:31;19.90;;;17.93;;
3781;SDS011;6881;49.962;7.718;2022-08-19T03:20:56;20.20;;;18.20;;
3781;SDS011;6881;49.962;7.718;2022-08-19T03:23:22;22.70;;;17.73;;
3781;SDS011;6881;49.962;7.718;2022-08-19T03:25:49;20.83;;;18.47;;
3781;SDS011;6881;49.962;7.718;2022-08-19T03:28:15;19.43;;;17.33;;
3781;SDS011;6881;49.962;7.718;2022-08-19T03:30:42;19.37;;;17.53;;
3781;SDS011;6881;49.962;7.718;2022-08-19T03:33:09;25.33;;;22.73;;
3781;SDS011;6881;49.962;7.718;2022-08-19T03:35:36;27.83;;;24.70;;
3781;SDS011;6881;49.962;7.718;2022-08-19T03:38:02;30.53;;;27.23;;
3781;SDS011;6881;49.962;7.718;2022-08-19T03:40:31;37.80;;;27.97;;
3781;SDS011;6881;49.962;7.718;2022-08-19T03:42:57;36.90;;;31.23;;
3781;SDS011;6881;49.962;7.718;2022-08-19T03:45:23;32.97;;;25.63;;
3781;SDS011;6881;49.962;7.718;2022-08-19T03:47:48;30.43;;;27.03;;
3781;SDS011;6881;49.962;7.718;2022-08-19T03:50:14;30.90;;;27.53;;
3781;SDS011;6881;49.962;7.718;2022-08-19T03:52:40;32.57;;;27.30;;
3781;SDS011;6881;49.962;7.718;2022-08-19T03:55:06;35.77;;;30.27;;
3781;SDS011;6881;49.962;7.718;2022-08-19T03:57:32;30.00;;;26.83;;
3781;SDS011;6881;49.962;7.718;2022-08-19T03:59:58;30.20;;;25.53;;
3781;SDS011;6881;49.962;7.718;2022-08-19T04:02:24;27.70;;;23.30;;
3781;SDS011;6881;49.962;7.718;2022-08-19T04:04:49;26.93;;;22.40;;
3781;SDS011;6881;49.962;7.718;2022-08-19T04:07:18;25.63;;;23.00;;
3781;SDS011;6881;49.962;7.718;2022-08-19T04:09:46;23.67;;;21.10;;
3781;SDS011;6881;49.962;7.718;2022-08-19T04:12:12;23.53;;;20.47;;
3781;SDS011;6881;49.962;7.718;2022-08-19T04:14:38;23.10;;;20.60;;
3781;SDS011;6881;49.962;7.718;2022-08-19T04:17:04;22.83;;;20.40;;
3781;SDS011;6881;49.962;7.718;2022-08-19T04:19:30;27.40;;;23.00;;
3781;SDS011;6881;49.962;7.718;2022-08-19T04:21:56;22.13;;;19.50;;
3781;SDS011;6881;49.962;7.718;2022-08-19T04:24:22;25.70;;;21.77;;
3781;SDS011;6881;49.962;7.718;2022-08-19T04:26:48;27.00;;;20.27;;
3781;SDS011;6881;49.962;7.718;2022-08-19T04:29:15;21.73;;;19.40;;
3781;SDS011;6881;49.962;7.718;2022-08-19T04:31:47;21.00;;;18.77;;
3781;SDS011;6881;49.962;7.718;2022-08-19T04:34:14;22.70;;;20.50;;
3781;SDS011;6881;49.962;7.718;2022-08-19T04:36:41;19.13;;;17.07;;
3781;SDS011;6881;49.962;7.718;2022-08-19T04:39:11;25.27;;;18.43;;
3781;SDS011;6881;49.962;7.718;2022-08-19T04:41:38;21.20;;;18.23;;
3781;SDS011;6881;49.962;7.718;2022-08-19T04:44:22;19.20;;;17.20;;
3781;SDS011;6881;49.962;7.718;2022-08-19T04:46:49;20.27;;;17.07;;
3781;SDS011;6881;49.962;7.718;2022-08-19T04:49:15;19.03;;;17.03;;
3781;SDS011;6881;49.962;7.718;2022-08-19T04:51:42;20.17;;;17.83;;
3781;SDS011;6881;49.962;7.718;2022-08-19T04:54:09;22.43;;;20.10;;
3781;SDS011;6881;49.962;7.718;2022-08-19T04:56:35;27.10;;;23.27;;
3781;SDS011;6881;49.962;7.718;2022-08-19T04:59:00;23.73;;;20.90;;
3781;SDS011;6881;49.962;7.718;2022-08-19T05:01:29;24.67;;;21.03;;
3781;SDS011;6881;49.962;7.718;2022-08-19T05:03:57;28.23;;;22.23;;
3781;SDS011;6881;49.962;7.718;2022-08-19T05:06:23;26.20;;;21.20;;
3781;SDS011;6881;49.962;7.718;2022-08-19T05:08:49;24.77;;;20.43;;
3781;SDS011;6881;49.962;7.718;2022-08-19T05:11:15;29.23;;;22.23;;
3781;SDS011;6881;49.962;7.718;2022-08-19T05:13:43;23.07;;;20.63;;
3781;SDS011;6881;49.962;7.718;2022-08-19T05:16:10;24.53;;;17.80;;
3781;SDS011;6881;49.962;7.718;2022-08-19T05:18:37;21.20;;;18.70;;
3781;SDS011;6881;49.962;7.718;2022-08-19T05:21:21;21.77;;;18.40;;
3781;SDS011;6881;49.962;7.718;2022-08-19T05:24:06;21.43;;;19.13;;
3781;SDS011;6881;49.962;7.718;2022-08-19T05:26:33;19.63;;;17.10;;
3781;SDS011;6881;49.962;7.718;2022-08-19T05:28:59;21.00;;;18.80;;
3781;SDS011;6881;49.962;7.718;2022-08-19T05:31:25;17.37;;;15.70;;
3781;SDS011;6881;49.962;7.718;2022-08-19T05:33:50;20.10;;;17.20;;
3781;SDS011;6881;49.962;7.718;2022-08-19T05:36:15;20.70;;;17.63;;
3781;SDS011;6881;49.962;7.718;2022-08-19T05:38:41;17.93;;;16.13;;
3781;SDS011;6881;49.962;7.718;2022-08-19T05:41:09;16.87;;;15.07;;
3781;SDS011;6881;49.962;7.718;2022-08-19T05:43:36;21.37;;;17.97;;
3781;SDS011;6881;49.962;7.718;2022-08-19T05:46:02;20.57;;;18.47;;
3781;SDS011;6881;49.962;7.718;2022-08-19T05:48:29;25.87;;;22.30;;
3781;SDS011;6881;49.962;7.718;2022-08-19T05:50:55;25.73;;;22.47;;
3781;SDS011;6881;49.962;7.718;2022-08-19T05:53:21;26.63;;;23.10;;
3781;SDS011;6881;49.962;7.718;2022-08-19T05:55:47;25.97;;;22.53;;
3781;SDS011;6881;49.962;7.718;2022-08-19T05:58:12;26.20;;;20.67;;
3781;SDS011;6881;49.962;7.718;2022-08-19T06:00:38;27.67;;;21.73;;
3781;SDS011;6881;49.962;7.718;2022-08-19T06:03:04;28.50;;;22.17;;
3781;SDS011;6881;49.962;7.718;2022-08-19T06:05:30;23.17;;;20.00;;
3781;SDS011;6881;49.962;7.718;2022-08-19T06:07:56;22.90;;;20.50;;
3781;SDS011;6881;49.962;7.718;2022-08-19T06:10:21;22.90;;;20.60;;
3781;SDS011;6881;49.962;7.718;2022-08-19T06:12:47;23.67;;;19.80;;
3781;SDS011;6881;49.962;7.718;2022-08-19T06:15:13;26.37;;;20.37;;
3781;SDS011;6881;49.962;7.718;2022-08-19T06:17:39;23.43;;;20.90;;
3781;SDS011;6881;49.962;7.718;2022-08-19T06:20:07;22.90;;;19.17;;
3781;SDS011;6881;49.962;7.718;2022-08-19T06:22:46;27.20;;;20.47;;
3781;SDS011;6881;49.962;7.718;2022-08-19T06:25:14;21.90;;;19.37;;
3781;SDS011;6881;49.962;7.718;2022-08-19T06:27:40;22.53;;;18.60;;
3781;SDS011;6881;49.962;7.718;2022-08-19T06:30:06;20.73;;;18.50;;
3781;SDS011;6881;49.962;7.718;2022-08-19T06:32:32;19.33;;;17.37;;
3781;SDS011;6881;49.962;7.718;2022-08-19T06:34:58;20.97;;;17.90;;
3781;SDS011;6881;49.962;7.718;2022-08-19T06:37:23;19.60;;;17.50;;
3781;SDS011;6881;49.962;7.718;2022-08-19T06:39:48;19.47;;;17.37;;
3781;SDS011;6881;49.962;7.718;2022-08-19T06:42:14;22.17;;;18.20;;
3781;SDS011;6881;49.962;7.718;2022-08-19T06:44:44;22.87;;;17.70;;
3781;SDS011;6881;49.962;7.718;2022-08-19T06:47:12;25.77;;;17.97;;
3781;SDS011;6881;49.962;7.718;2022-08-19T06:49:38;18.43;;;16.53;;
3781;SDS011;6881;49.962;7.718;2022-08-19T06:52:04;22.67;;;17.63;;
3781;SDS011;6881;49.962;7.718;2022-08-19T06:54:30;20.77;;;17.60;;
3781;SDS011;6881;49.962;7.718;2022-08-19T06:56:59;18.23;;;16.37;;
3781;SDS011;6881;49.962;7.718;2022-08-19T06:59:27;19.07;;;17.17;;
3781;SDS011;6881;49.962;7.718;2022-08-19T07:01:54;17.27;;;15.57;;
3781;SDS011;6881;49.962;7.718;2022-08-19T07:04:22;17.33;;;15.20;;
3781;SDS011;6881;49.962;7.718;2022-08-19T07:06:49;22.50;;;17.80;;
3781;SDS011;6881;49.962;7.718;2022-08-19T07:09:20;20.00;;;18.00;;
3781;SDS011;6881;49.962;7.718;2022-08-19T07:11:47;19.53;;;17.50;;
3781;SDS011;6881;49.962;7.718;2022-08-19T07:14:14;24.20;;;20.87;;
3781;SDS011;6881;49.962;7.718;2022-08-19T07:16:42;22.80;;;20.30;;
3781;SDS011;6881;49.962;7.718;2022-08-19T07:19:10;23.77;;;17.80;;
3781;SDS011;6881;49.962;7.718;2022-08-19T07:21:35;19.30;;;16.53;;
3781;SDS011;6881;49.962;7.718;2022-08-19T07:24:00;22.80;;;19.00;;
3781;SDS011;6881;49.962;7.718;2022-08-19T07:26:27;19.13;;;16.90;;
3781;SDS011;6881;49.962;7.718;2022-08-19T07:28:54;21.83;;;19.30;;
3781;SDS011;6881;49.962;7.718;2022-08-19T07:31:21;20.53;;;18.43;;
3781;SDS011;6881;49.962;7.718;2022-08-19T07:33:49;22.00;;;18.40;;
3781;SDS011;6881;49.962;7.718;2022-08-19T07:36:17;17.03;;;15.43;;
3781;SDS011;6881;49.962;7.718;2022-08-19T07:38:46;17.70;;;15.90;;
3781;SDS011;6881;49.962;7.718;2022-08-19T07:41:13;18.20;;;16.43;;
3781;SDS011;6881;49.962;7.718;2022-08-19T07:43:43;16.23;;;14.73;;
3781;SDS011;6881;49.962;7.718;2022-08-19T07:46:09;17.77;;;15.97;;
3781;SDS011;6881;49.962;7.718;2022-08-19T07:48:35;17.33;;;15.53;;
3781;SDS011;6881;49.962;7.718;2022-08-19T07:51:02;18.30;;;15.77;;
3781;SDS011;6881;49.962;7.718;2022-08-19T07:53:30;18.07;;;16.33;;
3781;SDS011;6881;49.962;7.718;2022-08-19T07:55:57;17.77;;;16.00;;
3781;SDS011;6881;49.962;7.718;2022-08-19T07:58:26;16.77;;;15.07;;
3781;SDS011;6881;49.962;7.718;2022-08-19T08:00:52;16.80;;;15.20;;
3781;SDS011;6881;49.962;7.718;2022-08-19T08:03:20;18.77;;;16.80;;
3781;SDS011;6881;49.962;7.718;2022-08-19T08:06:07;15.87;;;14.37;;
3781;SDS011;6881;49.962;7.718;2022-08-19T08:08:51;19.40;;;17.60;;
3781;SDS011;6881;49.962;7.718;2022-08-19T08:11:35;18.60;;;16.93;;
3781;SDS011;6881;49.962;7.718;2022-08-19T08:14:01;18.47;;;16.77;;
3781;SDS011;6881;49.962;7.718;2022-08-19T08:16:27;20.43;;;14.50;;
3781;SDS011;6881;49.962;7.718;2022-08-19T08:18:56;17.53;;;15.77;;
3781;SDS011;6881;49.962;7.718;2022-08-19T08:21:22;18.60;;;16.70;;
3781;SDS011;6881;49.962;7.718;2022-08-19T08:23:47;19.10;;;17.10;;
3781;SDS011;6881;49.962;7.718;2022-08-19T08:26:12;18.30;;;16.50;;
3781;SDS011;6881;49.962;7.718;2022-08-19T08:28:39;20.90;;;18.97;;
3781;SDS011;6881;49.962;7.718;2022-08-19T08:31:04;21.90;;;19.90;;
3781;SDS011;6881;49.962;7.718;2022-08-19T08:33:30;16.87;;;15.33;;
3781;SDS011;6881;49.962;7.718;2022-08-19T08:35:56;22.23;;;19.90;;
3781;SDS011;6881;49.962;7.718;2022-08-19T08:38:21;17.80;;;16.20;;
3781;SDS011;6881;49.962;7.718;2022-08-19T08:40:57;18.70;;;17.00;;
3781;SDS011;6881;49.962;7.718;2022-08-19T08:43:35;17.60;;;16.10;;
3781;SDS011;6881;49.962;7.718;2022-08-19T08:46:04;15.20;;;13.90;;
3781;SDS011;6881;49.962;7.718;2022-08-19T08:51:05;17.73;;;16.13;;
3781;SDS011;6881;49.962;7.718;2022-08-19T08:53:35;18.60;;;17.10;;
3781;SDS011;6881;49.962;7.718;2022-08-19T08:56:02;16.33;;;14.83;;
3781;SDS011;6881;49.962;7.718;2022-08-19T08:59:05;17.53;;;16.10;;
3781;SDS011;6881;49.962;7.718;2022-08-19T09:01:33;15.70;;;14.30;;
3781;SDS011;6881;49.962;7.718;2022-08-19T09:03:58;15.37;;;14.00;;
3781;SDS011;6881;49.962;7.718;2022-08-19T09:06:29;14.50;;;13.10;;
3781;SDS011;6881;49.962;7.718;2022-08-19T09:09:03;12.37;;;11.37;;
3781;SDS011;6881;49.962;7.718;2022-08-19T09:14:12;12.67;;;11.60;;
3781;SDS011;6881;49.962;7.718;2022-08-19T09:16:38;15.67;;;14.37;;
3781;SDS011;6881;49.962;7.718;2022-08-19T09:19:05;13.20;;;12.10;;
3781;SDS011;6881;49.962;7.718;2022-08-19T09:21:32;12.33;;;11.07;;
3781;SDS011;6881;49.962;7.718;2022-08-19T09:23:59;11.10;;;10.20;;
3781;SDS011;6881;49.962;7.718;2022-08-19T09:26:29;11.63;;;10.73;;
3781;SDS011;6881;49.962;7.718;2022-08-19T09:28:56;9.80;;;9.00;;
3781;SDS011;6881;49.962;7.718;2022-08-19T09:31:24;10.43;;;9.63;;
3781;SDS011;6881;49.962;7.718;2022-08-19T09:33:50;10.43;;;9.53;;
3781;SDS011;6881;49.962;7.718;2022-08-19T09:36:17;9.53;;;8.30;;
3781;SDS011;6881;49.962;7.718;2022-08-19T09:38:44;9.73;;;8.97;;
3781;SDS011;6881;49.962;7.718;2022-08-19T09:41:11;9.60;;;8.80;;
3781;SDS011;6881;49.962;7.718;2022-08-19T09:43:38;9.23;;;8.40;;
3781;SDS011;6881;49.962;7.718;2022-08-19T09:46:05;9.37;;;8.70;;
3781;SDS011;6881;49.962;7.718;2022-08-19T09:48:40;7.07;;;6.47;;
3781;SDS011;6881;49.962;7.718;2022-08-19T09:51:10;8.83;;;8.20;;
3781;SDS011;6881;49.962;7.718;2022-08-19T09:53:38;7.27;;;6.77;;
3781;SDS011;6881;49.962;7.718;2022-08-19T09:56:04;8.13;;;7.43;;
3781;SDS011;6881;49.962;7.718;2022-08-19T09:58:30;7.60;;;7.10;;
3781;SDS011;6881;49.962;7.718;2022-08-19T10:00:59;7.87;;;7.27;;
3781;SDS011;6881;49.962;7.718;2022-08-19T10:03:25;8.23;;;7.53;;
3781;SDS011;6881;49.962;7.718;2022-08-19T10:05:52;8.03;;;7.40;;
3781;SDS011;6881;49.962;7.718;2022-08-19T10:08:19;7.23;;;6.63;;
3781;SDS011;6881;49.962;7.718;2022-08-19T10:10:46;7.63;;;7.00;;
3781;SDS011;6881;49.962;7.718;2022-08-19T10:13:14;7.50;;;6.90;;
3781;SDS011;6881;49.962;7.718;2022-08-19T10:15:41;8.63;;;7.93;;
3781;SDS011;6881;49.962;7.718;2022-08-19T10:18:06;8.33;;;7.60;;
3781;SDS011;6881;49.962;7.718;2022-08-19T10:20:32;6.87;;;6.37;;
3781;SDS011;6881;49.962;7.718;2022-08-19T10:23:00;9.13;;;8.33;;
3781;SDS011;6881;49.962;7.718;2022-08-19T10:25:25;7.83;;;7.23;;
3781;SDS011;6881;49.962;7.718;2022-08-19T10:27:52;7.03;;;6.53;;
3781;SDS011;6881;49.962;7.718;2022-08-19T10:30:17;9.50;;;8.70;;
3781;SDS011;6881;49.962;7.718;2022-08-19T10:32:43;9.07;;;7.23;;
3781;SDS011;6881;49.962;7.718;2022-08-19T10:35:10;7.13;;;6.63;;
3781;SDS011;6881;49.962;7.718;2022-08-19T10:37:37;7.93;;;7.20;;
3781;SDS011;6881;49.962;7.718;2022-08-19T10:40:03;7.80;;;7.13;;
3781;SDS011;6881;49.962;7.718;2022-08-19T10:42:30;8.70;;;8.03;;
3781;SDS011;6881;49.962;7.718;2022-08-19T10:44:56;7.70;;;6.97;;
3781;SDS011;6881;49.962;7.718;2022-08-19T10:47:22;7.27;;;6.70;;
3781;SDS011;6881;49.962;7.718;2022-08-19T10:49:48;8.70;;;6.20;;
3781;SDS011;6881;49.962;7.718;2022-08-19T10:52:32;7.23;;;6.63;;
3781;SDS011;6881;49.962;7.718;2022-08-19T10:54:58;6.23;;;5.67;;
3781;SDS011;6881;49.962;7.718;2022-08-19T10:57:43;5.70;;;5.30;;
3781;SDS011;6881;49.962;7.718;2022-08-19T11:00:09;6.00;;;5.60;;
3781;SDS011;6881;49.962;7.718;2022-08-19T11:02:35;5.77;;;5.27;;
3781;SDS011;6881;49.962;7.718;2022-08-19T11:05:00;6.83;;;6.33;;
3781;SDS011;6881;49.962;7.718;2022-08-19T11:07:25;7.30;;;6.60;;
3781;SDS011;6881;49.962;7.718;2022-08-19T11:09:51;6.10;;;5.70;;
3781;SDS011;6881;49.962;7.718;2022-08-19T11:12:17;7.07;;;6.37;;
3781;SDS011;6881;49.962;7.718;2022-08-19T11:14:42;6.90;;;6.40;;
3781;SDS011;6881;49.962;7.718;2022-08-19T11:17:07;8.00;;;7.20;;
3781;SDS011;6881;49.962;7.718;2022-08-19T11:19:33;9.27;;;8.57;;
3781;SDS011;6881;49.962;7.718;2022-08-19T11:21:58;8.00;;;7.40;;
3781;SDS011;6881;49.962;7.718;2022-08-19T11:24:27;8.10;;;7.40;;
3781;SDS011;6881;49.962;7.718;2022-08-19T11:26:54;8.33;;;7.63;;
3781;SDS011;6881;49.962;7.718;2022-08-19T11:29:24;8.67;;;7.87;;
3781;SDS011;6881;49.962;7.718;2022-08-19T11:31:50;8.87;;;7.83;;
3781;SDS011;6881;49.962;7.718;2022-08-19T11:34:19;9.77;;;8.27;;
3781;SDS011;6881;49.962;7.718;2022-08-19T11:36:46;8.50;;;7.60;;
3781;SDS011;6881;49.962;7.718;2022-08-19T11:39:13;6.70;;;6.20;;
3781;SDS011;6881;49.962;7.718;2022-08-19T11:41:41;8.27;;;7.67;;
3781;SDS011;6881;49.962;7.718;2022-08-19T11:44:06;8.07;;;7.43;;
3781;SDS011;6881;49.962;7.718;2022-08-19T11:46:35;7.90;;;7.20;;
3781;SDS011;6881;49.962;7.718;2022-08-19T11:49:02;8.17;;;7.47;;
3781;SDS011;6881;49.962;7.718;2022-08-19T11:51:29;8.33;;;7.53;;
3781;SDS011;6881;49.962;7.718;2022-08-19T11:53:56;8.50;;;7.80;;
3781;SDS011;6881;49.962;7.718;2022-08-19T11:56:23;9.07;;;8.37;;
3781;SDS011;6881;49.962;7.718;2022-08-19T11:58:50;8.97;;;8.17;;
3781;SDS011;6881;49.962;7.718;2022-08-19T12:01:17;8.40;;;7.10;;
3781;SDS011;6881;49.962;7.718;2022-08-19T12:03:45;7.77;;;7.10;;
3781;SDS011;6881;49.962;7.718;2022-08-19T12:06:12;8.33;;;7.73;;
3781;SDS011;6881;49.962;7.718;2022-08-19T12:08:42;8.73;;;8.10;;
3781;SDS011;6881;49.962;7.718;2022-08-19T12:11:08;8.47;;;7.83;;
3781;SDS011;6881;49.962;7.718;2022-08-19T12:13:35;8.80;;;8.10;;
3781;SDS011;6881;49.962;7.718;2022-08-19T12:16:01;7.90;;;7.20;;
3781;SDS011;6881;49.962;7.718;2022-08-19T12:18:33;7.77;;;7.17;;
3781;SDS011;6881;49.962;7.718;2022-08-19T12:20:58;7.77;;;7.07;;
3781;SDS011;6881;49.962;7.718;2022-08-19T12:23:26;7.37;;;6.83;;
3781;SDS011;6881;49.962;7.718;2022-08-19T12:25:51;7.37;;;6.77;;
3781;SDS011;6881;49.962;7.718;2022-08-19T12:28:20;7.90;;;7.30;;
3781;SDS011;6881;49.962;7.718;2022-08-19T12:30:47;6.77;;;6.37;;
3781;SDS011;6881;49.962;7.718;2022-08-19T12:33:13;5.80;;;5.40;;
3781;SDS011;6881;49.962;7.718;2022-08-19T12:35:40;6.83;;;6.33;;
3781;SDS011;6881;49.962;7.718;2022-08-19T12:38:07;6.77;;;6.33;;
3781;SDS011;6881;49.962;7.718;2022-08-19T12:40:32;7.10;;;6.50;;
3781;SDS011;6881;49.962;7.718;2022-08-19T12:42:58;6.97;;;6.47;;
3781;SDS011;6881;49.962;7.718;2022-08-19T12:45:24;6.90;;;6.40;;
3781;SDS011;6881;49.962;7.718;2022-08-19T12:47:49;7.10;;;6.60;;
3781;SDS011;6881;49.962;7.718;2022-08-19T12:50:15;7.47;;;6.93;;
3781;SDS011;6881;49.962;7.718;2022-08-19T12:52:40;8.27;;;7.50;;
3781;SDS011;6881;49.962;7.718;2022-08-19T12:55:07;8.00;;;7.30;;
3781;SDS011;6881;49.962;7.718;2022-08-19T12:57:33;8.13;;;7.37;;
3781;SDS011;6881;49.962;7.718;2022-08-19T13:00:10;7.33;;;6.83;;
3781;SDS011;6881;49.962;7.718;2022-08-19T13:02:42;8.27;;;7.67;;
3781;SDS011;6881;49.962;7.718;2022-08-19T13:05:10;8.30;;;7.60;;
3781;SDS011;6881;49.962;7.718;2022-08-19T13:07:37;7.90;;;7.10;;
3781;SDS011;6881;49.962;7.718;2022-08-19T13:10:04;8.30;;;7.70;;
3781;SDS011;6881;49.962;7.718;2022-08-19T13:12:30;7.83;;;7.33;;
3781;SDS011;6881;49.962;7.718;2022-08-19T13:14:55;8.37;;;7.10;;
3781;SDS011;6881;49.962;7.718;2022-08-19T13:17:21;8.40;;;7.60;;
3781;SDS011;6881;49.962;7.718;2022-08-19T13:19:47;7.93;;;7.33;;
3781;SDS011;6881;49.962;7.718;2022-08-19T13:22:12;8.53;;;7.83;;
3781;SDS011;6881;49.962;7.718;2022-08-19T13:24:37;8.40;;;7.80;;
3781;SDS011;6881;49.962;7.718;2022-08-19T13:27:04;7.90;;;7.30;;
3781;SDS011;6881;49.962;7.718;2022-08-19T13:29:29;10.20;;;9.40;;
3781;SDS011;6881;49.962;7.718;2022-08-19T13:32:13;7.60;;;7.10;;
3781;SDS011;6881;49.962;7.718;2022-08-19T13:34:57;9.13;;;8.43;;
3781;SDS011;6881;49.962;7.718;2022-08-19T13:37:22;7.90;;;7.30;;
3781;SDS011;6881;49.962;7.718;2022-08-19T13:40:07;9.00;;;8.20;;
3781;SDS011;6881;49.962;7.718;2022-08-19T13:42:40;9.00;;;8.20;;
3781;SDS011;6881;49.962;7.718;2022-08-19T13:45:07;8.73;;;7.93;;
3781;SDS011;6881;49.962;7.718;2022-08-19T13:47:33;9.37;;;8.30;;
3781;SDS011;6881;49.962;7.718;2022-08-19T13:50:13;9.67;;;8.77;;
3781;SDS011;6881;49.962;7.718;2022-08-19T13:52:39;9.47;;;8.77;;
3781;SDS011;6881;49.962;7.718;2022-08-19T13:55:05;10.10;;;9.40;;
3781;SDS011;6881;49.962;7.718;2022-08-19T13:57:32;10.50;;;9.10;;
3781;SDS011;6881;49.962;7.718;2022-08-19T13:59:58;10.93;;;9.83;;
3781;SDS011;6881;49.962;7.718;2022-08-19T14:02:23;10.80;;;9.90;;
3781;SDS011;6881;49.962;7.718;2022-08-19T14:04:49;9.43;;;8.73;;
3781;SDS011;6881;49.962;7.718;2022-08-19T14:07:15;9.30;;;8.50;;
3781;SDS011;6881;49.962;7.718;2022-08-19T14:09:40;9.60;;;8.80;;
3781;SDS011;6881;49.962;7.718;2022-08-19T14:12:06;10.57;;;9.67;;
3781;SDS011;6881;49.962;7.718;2022-08-19T14:14:31;11.10;;;10.10;;
3781;SDS011;6881;49.962;7.718;2022-08-19T14:16:57;9.67;;;8.87;;
3781;SDS011;6881;49.962;7.718;2022-08-19T14:19:22;8.80;;;8.00;;
3781;SDS011;6881;49.962;7.718;2022-08-19T14:21:48;8.53;;;7.80;;
3781;SDS011;6881;49.962;7.718;2022-08-19T14:24:13;9.00;;;8.17;;
3781;SDS011;6881;49.962;7.718;2022-08-19T14:26:38;10.13;;;9.33;;
3781;SDS011;6881;49.962;7.718;2022-08-19T14:29:04;9.13;;;8.30;;
3781;SDS011;6881;49.962;7.718;2022-08-19T14:31:29;8.90;;;8.03;;
3781;SDS011;6881;49.962;7.718;2022-08-19T14:33:55;9.97;;;9.17;;
3781;SDS011;6881;49.962;7.718;2022-08-19T14:36:20;8.87;;;8.13;;
3781;SDS011;6881;49.962;7.718;2022-08-19T14:38:46;10.00;;;8.60;;
3781;SDS011;6881;49.962;7.718;2022-08-19T14:41:20;9.50;;;8.80;;
3781;SDS011;6881;49.962;7.718;2022-08-19T14:43:48;9.63;;;8.73;;
3781;SDS011;6881;49.962;7.718;2022-08-19T14:46:17;10.70;;;9.70;;
3781;SDS011;6881;49.962;7.718;2022-08-19T14:48:45;9.73;;;8.90;;
3781;SDS011;6881;49.962;7.718;2022-08-19T14:51:10;10.40;;;9.50;;
3781;SDS011;6881;49.962;7.718;2022-08-19T14:53:36;10.30;;;9.50;;
3781;SDS011;6881;49.962;7.718;2022-08-19T14:56:06;8.03;;;7.40;;
3781;SDS011;6881;49.962;7.718;2022-08-19T14:58:41;10.10;;;9.30;;
3781;SDS011;6881;49.962;7.718;2022-08-19T15:01:07;8.90;;;8.20;;
3781;SDS011;6881;49.962;7.718;2022-08-19T15:03:33;9.43;;;8.63;;
3781;SDS011;6881;49.962;7.718;2022-08-19T15:05:59;9.93;;;9.10;;
3781;SDS011;6881;49.962;7.718;2022-08-19T15:08:27;10.70;;;9.70;;